Terminal Aerodrome Forecast
Issued by NWS

Home | Current Version | Previous Version | Text Only | Print | Product List | Glossary On
Versions: 1 2 3 4 5 6 7 8 9 10 11 12 13 14 15 16 17 18 19
000
FTUS41 KRNK 221130
TAFBCB
TAF
KBCB 221130Z 2212/2312 19004KT P6SM SCT018 BKN025
      TEMPO 2212/2214 BKN018
     FM221500 23008G15KT P6SM BKN028
     FM222100 23004KT P6SM BKN050
     FM230300 09006KT P6SM OVC012=

USA.gov is the U.S. government's official web portal to all federal, state and local government web resources and services.